createdAt,value
2022-08-01T00:00:28.509Z,4.72
2022-08-01T00:03:13.894Z,3.22
2022-08-01T00:05:59.180Z,3.95
2022-08-01T00:08:44.547Z,3.28
2022-08-01T00:11:30.044Z,5.45
2022-08-01T00:14:15.175Z,4.28
2022-08-01T00:17:05.369Z,4.95
2022-08-01T00:19:52.826Z,5.35
2022-08-01T00:22:38.173Z,5.45
2022-08-01T00:25:33.547Z,4.75
2022-08-01T00:28:19.374Z,4.20
2022-08-01T00:31:05.006Z,4.72
2022-08-01T00:33:50.421Z,5.15
2022-08-01T00:36:35.869Z,5.10
2022-08-01T00:39:21.227Z,4.43
2022-08-01T00:42:11.275Z,5.15
2022-08-01T00:44:56.586Z,5.03
2022-08-01T00:47:42.088Z,4.85
2022-08-01T00:50:27.867Z,3.75
2022-08-01T00:53:18.631Z,4.38
2022-08-01T00:56:05.027Z,3.40
2022-08-01T00:58:50.422Z,3.10
2022-08-01T01:01:39.487Z,3.70
2022-08-01T01:04:26.036Z,2.55
2022-08-01T01:07:25.920Z,3.17
2022-08-01T01:10:18.654Z,3.28
2022-08-01T01:13:11.553Z,2.60
2022-08-01T01:16:06.335Z,3.20
2022-08-01T01:18:55.921Z,2.90
2022-08-01T01:21:59.873Z,3.58
2022-08-01T01:25:10.377Z,3.25
2022-08-01T01:28:03.206Z,3.33
2022-08-01T01:30:52.405Z,2.80
2022-08-01T01:33:47.176Z,3.42
2022-08-01T01:36:34.940Z,3.88
2022-08-01T01:39:23.052Z,5.72
2022-08-01T01:42:08.765Z,4.18
2022-08-01T01:44:55.472Z,3.53
2022-08-01T01:47:42.080Z,3.70
2022-08-01T01:50:29.139Z,3.97
2022-08-01T01:53:18.581Z,5.40
2022-08-01T01:56:04.774Z,5.43
2022-08-01T01:59:00.436Z,4.70
2022-08-01T02:02:03.658Z,4.70
2022-08-01T02:04:54.897Z,4.35
2022-08-01T02:07:41.051Z,4.72
2022-08-01T02:10:28.715Z,4.75
2022-08-01T02:13:15.051Z,4.63
2022-08-01T02:16:01.717Z,5.43
2022-08-01T02:18:47.174Z,8.77
2022-08-01T02:21:44.433Z,6.63
2022-08-01T02:24:57.711Z,6.82
2022-08-01T02:28:06.552Z,6.15
2022-08-01T02:30:52.166Z,6.18
2022-08-01T02:33:44.670Z,6.07
2022-08-01T02:36:33.609Z,4.38
2022-08-01T02:39:22.673Z,4.68
2022-08-01T02:42:09.787Z,4.55
2022-08-01T02:44:55.935Z,3.40
2022-08-01T02:47:43.157Z,2.92
2022-08-01T02:50:30.685Z,3.25
2022-08-01T02:53:21.113Z,2.70
2022-08-01T02:56:08.800Z,2.33
2022-08-01T02:58:54.478Z,2.13
2022-08-01T03:01:44.325Z,2.20
2022-08-01T03:04:31.009Z,2.40
2022-08-01T03:07:17.274Z,1.73
2022-08-01T03:10:06.075Z,1.90
2022-08-01T03:12:52.307Z,2.83
2022-08-01T03:15:40.666Z,2.60
2022-08-01T03:18:28.107Z,2.20
2022-08-01T03:21:15.102Z,2.55
2022-08-01T03:24:04.750Z,4.03
2022-08-01T03:26:52.836Z,2.55
2022-08-01T03:29:40.035Z,3.08
2022-08-01T03:32:28.504Z,2.70
2022-08-01T03:35:14.079Z,2.85
2022-08-01T03:38:17.469Z,2.70
2022-08-01T03:41:10.456Z,2.85
2022-08-01T03:44:04.578Z,3.35
2022-08-01T03:47:01.801Z,2.75
2022-08-01T03:49:48.880Z,3.00
2022-08-01T03:52:35.871Z,2.90
2022-08-01T03:55:22.773Z,3.50
2022-08-01T03:58:10.057Z,3.67
2022-08-01T04:00:56.054Z,3.25
2022-08-01T04:03:43.139Z,3.97
2022-08-01T04:06:28.637Z,4.50
2022-08-01T04:09:14.317Z,2.95
2022-08-01T04:12:01.072Z,3.22
2022-08-01T04:14:55.323Z,2.78
2022-08-01T04:17:40.718Z,4.47
2022-08-01T04:20:26.145Z,4.38
2022-08-01T04:23:11.993Z,6.38
2022-08-01T04:25:58.600Z,5.60
2022-08-01T04:28:45.171Z,6.57
2022-08-01T04:31:32.777Z,6.47
2022-08-01T04:34:23.428Z,6.28
2022-08-01T04:37:13.286Z,4.60
2022-08-01T04:40:00.501Z,5.38
2022-08-01T04:42:46.645Z,7.35
2022-08-01T04:45:33.118Z,7.22
2022-08-01T04:48:22.934Z,7.75
2022-08-01T04:51:16.295Z,8.63
2022-08-01T04:54:02.696Z,7.88
2022-08-01T04:56:48.213Z,11.93
2022-08-01T04:59:42.976Z,7.50
2022-08-01T05:02:29.978Z,8.57
2022-08-01T05:05:15.908Z,13.00
2022-08-01T05:08:01.516Z,10.23
2022-08-01T05:10:46.884Z,8.70
2022-08-01T05:13:32.250Z,13.00
2022-08-01T05:16:17.917Z,10.57
2022-08-01T05:19:03.512Z,10.50
2022-08-01T05:21:48.632Z,13.63
2022-08-01T05:24:40.124Z,11.80
2022-08-01T05:27:26.260Z,12.43
2022-08-01T05:30:14.043Z,9.65
2022-08-01T05:32:59.592Z,10.68
2022-08-01T05:35:48.135Z,10.43
2022-08-01T05:38:34.641Z,11.15
2022-08-01T05:41:19.904Z,12.13
2022-08-01T05:44:06.663Z,13.02
2022-08-01T05:46:52.357Z,10.18
2022-08-01T05:49:38.331Z,8.88
2022-08-01T05:52:23.589Z,13.07
2022-08-01T05:55:10.397Z,9.52
2022-08-01T05:57:55.388Z,9.68
2022-08-01T06:00:41.312Z,9.27
2022-08-01T06:03:26.654Z,10.43
2022-08-01T06:06:12.437Z,10.57
2022-08-01T06:08:57.663Z,9.10
2022-08-01T06:11:43.212Z,9.50
2022-08-01T06:14:28.669Z,11.75
2022-08-01T06:17:14.136Z,12.82
2022-08-01T06:20:00.264Z,12.52
2022-08-01T06:22:45.639Z,12.23
2022-08-01T06:25:37.949Z,13.07
2022-08-01T06:28:23.840Z,13.13
2022-08-01T06:31:10.814Z,12.07
2022-08-01T06:33:58.060Z,9.77
2022-08-01T06:36:43.480Z,10.20
2022-08-01T06:39:28.920Z,9.73
2022-08-01T06:42:15.780Z,13.85
2022-08-01T06:45:01.466Z,8.27
2022-08-01T06:47:50.783Z,10.98
2022-08-01T06:50:39.632Z,7.78
2022-08-01T06:53:24.849Z,6.47
2022-08-01T06:56:10.387Z,8.93
2022-08-01T06:59:01.636Z,7.38
2022-08-01T07:01:47.253Z,8.68
2022-08-01T07:04:33.065Z,8.52
2022-08-01T07:07:18.301Z,8.27
2022-08-01T07:10:04.218Z,7.40
2022-08-01T07:12:49.894Z,7.40
2022-08-01T07:15:35.454Z,10.45
2022-08-01T07:18:21.723Z,12.75
2022-08-01T07:21:39.171Z,12.15
2022-08-01T07:24:19.570Z,6.82
2022-08-01T07:27:24.076Z,8.75
2022-08-01T07:30:11.551Z,7.82
2022-08-01T07:32:56.806Z,7.28
2022-08-01T07:35:43.252Z,9.07
2022-08-01T07:38:28.580Z,10.15
2022-08-01T07:41:14.728Z,6.25
2022-08-01T07:44:04.585Z,10.98
2022-08-01T07:46:50.067Z,7.68
2022-08-01T07:49:40.329Z,6.55
2022-08-01T07:52:27.969Z,5.22
2022-08-01T07:55:16.703Z,8.13
2022-08-01T07:58:02.173Z,7.70
2022-08-01T08:00:47.589Z,10.82
2022-08-01T08:03:32.974Z,9.00
2022-08-01T08:06:18.299Z,8.43
2022-08-01T08:09:03.964Z,8.13
2022-08-01T08:11:49.062Z,7.68
2022-08-01T08:14:34.996Z,5.07
2022-08-01T08:17:20.090Z,5.28
2022-08-01T08:20:09.050Z,7.53
2022-08-01T08:22:56.025Z,7.68
2022-08-01T08:25:41.390Z,10.15
2022-08-01T08:28:28.302Z,9.40
2022-08-01T08:31:25.710Z,6.00
2022-08-01T08:34:19.508Z,8.50
2022-08-01T08:37:06.178Z,7.38
2022-08-01T08:39:51.699Z,10.98
2022-08-01T08:42:39.292Z,9.52
2022-08-01T08:45:56.157Z,10.45
2022-08-01T08:48:31.234Z,7.82
2022-08-01T08:51:19.996Z,8.00
2022-08-01T08:54:06.893Z,6.07
2022-08-01T08:56:53.870Z,7.25
2022-08-01T08:59:39.436Z,7.72
2022-08-01T09:02:24.994Z,6.43
2022-08-01T09:05:13.077Z,7.80
2022-08-01T09:08:01.504Z,5.78
2022-08-01T09:10:47.125Z,7.35
2022-08-01T09:13:32.184Z,7.43
2022-08-01T09:16:20.471Z,9.32
2022-08-01T09:19:39.472Z,5.68
2022-08-01T09:22:25.978Z,9.02
2022-08-01T09:25:11.854Z,6.32
2022-08-01T09:28:06.593Z,7.10
2022-08-01T09:30:51.803Z,5.78
2022-08-01T09:33:52.423Z,7.95
2022-08-01T09:36:56.871Z,6.97
2022-08-01T09:39:44.349Z,4.60
2022-08-01T09:42:29.680Z,5.20
2022-08-01T09:45:41.608Z,4.85
2022-08-01T09:48:29.508Z,4.72
2022-08-01T09:51:58.984Z,7.30
2022-08-01T09:54:35.411Z,8.27
2022-08-01T09:57:21.402Z,5.82
2022-08-01T10:00:29.571Z,7.35
2022-08-01T10:03:26.915Z,5.38
2022-08-01T10:06:24.697Z,5.85
2022-08-01T10:09:13.590Z,5.43
2022-08-01T10:12:00.625Z,4.28
2022-08-01T10:14:55.746Z,4.88
2022-08-01T10:17:51.142Z,4.20
2022-08-01T10:20:37.763Z,6.32
2022-08-01T10:23:40.453Z,4.15
2022-08-01T10:26:27.508Z,5.00
2022-08-01T10:29:46.730Z,5.50
2022-08-01T10:32:20.528Z,4.15
2022-08-01T10:35:14.759Z,4.32
2022-08-01T10:38:01.847Z,4.97
2022-08-01T10:40:54.303Z,4.72
2022-08-01T10:43:40.150Z,4.75
2022-08-01T10:46:32.419Z,3.78
2022-08-01T10:49:20.790Z,7.18
2022-08-01T10:52:06.454Z,7.05
2022-08-01T10:55:07.049Z,6.03
2022-08-01T10:57:53.237Z,3.88
2022-08-01T11:00:38.974Z,4.20
2022-08-01T11:03:56.012Z,7.70
2022-08-01T11:06:44.119Z,6.43
2022-08-01T11:09:37.092Z,4.85
2022-08-01T11:12:43.986Z,4.57
2022-08-01T11:15:31.169Z,4.07
2022-08-01T11:18:31.011Z,6.45
2022-08-01T11:21:57.178Z,3.35
2022-08-01T11:24:50.598Z,5.70
2022-08-01T11:27:36.535Z,4.72
2022-08-01T11:30:26.589Z,4.35
2022-08-01T11:33:13.429Z,6.55
2022-08-01T11:36:16.555Z,4.60
2022-08-01T11:39:14.103Z,5.10
2022-08-01T11:42:19.596Z,4.78
2022-08-01T11:45:07.402Z,6.10
2022-08-01T11:47:53.119Z,11.30
2022-08-01T11:50:39.089Z,5.03
2022-08-01T11:53:24.578Z,3.78
2022-08-01T11:56:12.311Z,6.50
2022-08-01T11:59:00.985Z,3.72
2022-08-01T12:01:46.385Z,5.63
2022-08-01T12:05:04.880Z,6.18
2022-08-01T12:07:52.732Z,5.72
2022-08-01T12:10:49.302Z,5.00
2022-08-01T12:13:46.192Z,4.20
2022-08-01T12:16:33.104Z,6.40
2022-08-01T12:19:23.651Z,5.03
2022-08-01T12:22:14.816Z,4.55
2022-08-01T12:25:11.670Z,4.80
2022-08-01T12:28:01.391Z,3.95
2022-08-01T12:30:49.003Z,3.72
2022-08-01T12:33:35.254Z,3.33
2022-08-01T12:36:29.463Z,3.88
2022-08-01T12:39:15.423Z,4.32
2022-08-01T12:42:01.497Z,3.90
2022-08-01T12:44:52.092Z,4.57
2022-08-01T12:47:40.249Z,5.07
2022-08-01T12:50:29.422Z,3.28
2022-08-01T12:53:16.793Z,4.32
2022-08-01T12:56:02.084Z,4.78
2022-08-01T12:58:47.574Z,4.10
2022-08-01T13:01:33.676Z,3.22
2022-08-01T13:04:18.828Z,4.60
2022-08-01T13:07:05.019Z,4.43
2022-08-01T13:09:52.487Z,4.90
2022-08-01T13:12:38.263Z,4.22
2022-08-01T13:15:32.535Z,8.35
2022-08-01T13:18:33.564Z,5.13
2022-08-01T13:21:52.270Z,4.45
2022-08-01T13:24:35.729Z,3.35
2022-08-01T13:27:24.742Z,4.60
2022-08-01T13:30:16.297Z,3.47
2022-08-01T13:33:02.370Z,4.60
2022-08-01T13:35:50.047Z,2.63
2022-08-01T13:38:53.810Z,4.00
2022-08-01T13:41:39.791Z,3.65
2022-08-01T13:44:25.074Z,6.13
2022-08-01T13:47:15.454Z,4.47
2022-08-01T13:50:03.763Z,4.85
2022-08-01T13:52:50.173Z,3.80
2022-08-01T13:55:35.731Z,6.28
2022-08-01T13:58:21.695Z,4.40
2022-08-01T14:01:06.955Z,3.75
2022-08-01T14:03:53.093Z,5.13
2022-08-01T14:06:38.906Z,4.03
2022-08-01T14:09:24.986Z,4.93
2022-08-01T14:12:17.632Z,4.85
2022-08-01T14:15:03.441Z,3.88
2022-08-01T14:17:48.788Z,4.10
2022-08-01T14:20:39.037Z,5.95
2022-08-01T14:23:24.221Z,3.40
2022-08-01T14:26:12.501Z,5.15
2022-08-01T14:28:58.133Z,5.53
2022-08-01T14:31:43.634Z,6.63
2022-08-01T14:34:28.884Z,5.65
2022-08-01T14:37:14.557Z,3.55
2022-08-01T14:40:01.515Z,4.60
2022-08-01T14:42:47.199Z,4.18
2022-08-01T14:45:33.696Z,4.90
2022-08-01T14:48:19.079Z,4.65
2022-08-01T14:51:05.082Z,5.65
2022-08-01T14:53:53.279Z,8.13
2022-08-01T14:56:38.944Z,6.28
2022-08-01T14:59:24.582Z,5.72
2022-08-01T15:02:11.455Z,5.32
2022-08-01T15:04:57.070Z,4.85
2022-08-01T15:07:43.117Z,5.97
2022-08-01T15:10:37.730Z,5.10
2022-08-01T15:13:23.165Z,7.32
2022-08-01T15:16:08.744Z,7.25
2022-08-01T15:18:57.467Z,4.85
2022-08-01T15:21:43.135Z,4.30
2022-08-01T15:24:28.297Z,8.07
2022-08-01T15:27:13.911Z,7.95
2022-08-01T15:29:59.354Z,5.65
2022-08-01T15:32:45.196Z,6.10
2022-08-01T15:35:30.782Z,3.67
2022-08-01T15:38:16.377Z,4.32
2022-08-01T15:41:01.432Z,5.50
2022-08-01T15:43:47.036Z,6.05
2022-08-01T15:46:41.603Z,3.42
2022-08-01T15:49:27.244Z,5.65
2022-08-01T15:52:21.567Z,6.20
2022-08-01T15:55:09.136Z,3.78
2022-08-01T15:57:54.438Z,7.57
2022-08-01T16:00:40.303Z,3.55
2022-08-01T16:03:25.625Z,5.10
2022-08-01T16:06:10.981Z,5.85
2022-08-01T16:08:56.902Z,5.63
2022-08-01T16:11:43.002Z,2.90
2022-08-01T16:14:36.014Z,3.70
2022-08-01T16:17:21.653Z,4.35
2022-08-01T16:20:08.102Z,4.97
2022-08-01T16:22:53.361Z,5.85
2022-08-01T16:25:38.790Z,3.45
2022-08-01T16:28:24.569Z,4.05
2022-08-01T16:31:11.247Z,3.60
2022-08-01T16:34:05.647Z,2.40
2022-08-01T16:36:52.662Z,5.40
2022-08-01T16:39:38.686Z,5.10
2022-08-01T16:42:24.077Z,5.32
2022-08-01T16:45:14.537Z,3.63
2022-08-01T16:48:00.185Z,3.05
2022-08-01T16:50:49.784Z,6.50
2022-08-01T16:53:35.199Z,5.78
2022-08-01T16:56:21.481Z,5.10
2022-08-01T16:59:06.844Z,3.40
2022-08-01T17:02:01.101Z,2.67
2022-08-01T17:04:47.397Z,3.83
2022-08-01T17:07:33.147Z,2.22
2022-08-01T17:10:20.719Z,4.25
2022-08-01T17:13:06.513Z,4.65
2022-08-01T17:15:51.915Z,4.65
2022-08-01T17:18:37.552Z,3.20
2022-08-01T17:21:22.633Z,3.75
2022-08-01T17:24:08.457Z,3.60
2022-08-01T17:26:53.924Z,2.42
2022-08-01T17:29:43.711Z,3.95
2022-08-01T17:32:29.802Z,3.47
2022-08-01T17:35:16.373Z,4.53
2022-08-01T17:38:01.794Z,2.63
2022-08-01T17:40:47.312Z,4.15
2022-08-01T17:43:33.017Z,2.83
2022-08-01T17:46:19.078Z,2.75
2022-08-01T17:49:05.835Z,3.33
2022-08-01T17:51:51.741Z,4.07
2022-08-01T17:54:37.349Z,4.40
2022-08-01T17:57:22.891Z,3.40
2022-08-01T18:00:09.196Z,3.85
2022-08-01T18:02:54.568Z,3.63
2022-08-01T18:05:41.132Z,3.40
2022-08-01T18:08:27.296Z,4.53
2022-08-01T18:11:13.957Z,3.67
2022-08-01T18:13:59.974Z,3.72
2022-08-01T18:16:45.254Z,2.33
2022-08-01T18:19:30.915Z,4.32
2022-08-01T18:22:31.366Z,4.20
2022-08-01T18:25:20.171Z,2.47
2022-08-01T18:28:22.525Z,2.83
2022-08-01T18:31:13.150Z,2.05
2022-08-01T18:33:58.545Z,3.78
2022-08-01T18:36:44.145Z,3.13
2022-08-01T18:39:30.378Z,2.45
2022-08-01T18:42:19.088Z,2.53
2022-08-01T18:45:04.849Z,2.40
2022-08-01T18:47:51.183Z,2.53
2022-08-01T18:50:36.604Z,3.67
2022-08-01T18:53:24.075Z,1.60
2022-08-01T18:56:12.196Z,2.35
2022-08-01T18:58:57.298Z,3.03
2022-08-01T19:01:43.414Z,3.42
2022-08-01T19:04:28.680Z,3.42
2022-08-01T19:07:16.312Z,1.65
2022-08-01T19:10:06.741Z,2.47
2022-08-01T19:12:52.685Z,2.95
2022-08-01T19:15:38.205Z,2.22
2022-08-01T19:18:25.105Z,4.57
2022-08-01T19:21:11.127Z,2.65
2022-08-01T19:24:14.935Z,2.92
2022-08-01T19:27:08.801Z,2.33
2022-08-01T19:29:56.316Z,1.80
2022-08-01T19:32:47.525Z,2.92
2022-08-01T19:35:33.269Z,2.10
2022-08-01T19:38:19.349Z,1.63
2022-08-01T19:41:04.722Z,2.30
2022-08-01T19:43:51.195Z,2.10
2022-08-01T19:46:38.869Z,2.42
2022-08-01T19:49:24.429Z,3.17
2022-08-01T19:52:10.403Z,3.70
2022-08-01T19:54:56.810Z,4.05
2022-08-01T19:57:45.614Z,2.13
2022-08-01T20:00:34.276Z,1.52
2022-08-01T20:03:19.984Z,2.50
2022-08-01T20:06:06.157Z,2.38
2022-08-01T20:08:51.969Z,2.63
2022-08-01T20:11:37.767Z,4.10
2022-08-01T20:14:25.301Z,1.80
2022-08-01T20:17:10.928Z,2.05
2022-08-01T20:19:56.534Z,2.15
2022-08-01T20:22:42.808Z,2.40
2022-08-01T20:25:39.560Z,1.85
2022-08-01T20:28:29.122Z,1.95
2022-08-01T20:31:16.896Z,1.63
2022-08-01T20:34:02.646Z,5.38
2022-08-01T20:36:56.699Z,2.10
2022-08-01T20:39:44.208Z,2.58
2022-08-01T20:42:31.822Z,2.92
2022-08-01T20:45:18.774Z,2.08
2022-08-01T20:48:07.872Z,2.22
2022-08-01T20:51:12.005Z,2.80
2022-08-01T20:53:58.102Z,1.73
2022-08-01T20:56:59.705Z,4.05
2022-08-01T20:59:56.862Z,2.78
2022-08-01T21:03:04.632Z,3.50
2022-08-01T21:06:00.616Z,1.63
2022-08-01T21:08:49.785Z,2.08
2022-08-01T21:12:00.562Z,2.90
2022-08-01T21:14:48.841Z,3.55
2022-08-01T21:17:49.617Z,3.30
2022-08-01T21:20:41.898Z,4.20
2022-08-01T21:23:43.510Z,2.03
2022-08-01T21:26:29.262Z,2.97
2022-08-01T21:29:16.705Z,1.80
2022-08-01T21:32:14.556Z,3.10
2022-08-01T21:35:01.817Z,1.42
2022-08-01T21:37:52.569Z,2.13
2022-08-01T21:40:38.402Z,2.28
2022-08-01T21:43:24.007Z,2.25
2022-08-01T21:46:10.168Z,1.50
2022-08-01T21:48:56.465Z,4.13
2022-08-01T21:52:00.986Z,2.38
2022-08-01T21:55:15.503Z,2.20
2022-08-01T21:58:23.822Z,1.55
2022-08-01T22:01:58.295Z,1.25
2022-08-01T22:05:04.219Z,1.65
2022-08-01T22:07:57.547Z,2.17
2022-08-01T22:10:43.401Z,2.00
2022-08-01T22:13:29.117Z,1.30
2022-08-01T22:16:15.382Z,2.28
2022-08-01T22:19:04.398Z,1.73
2022-08-01T22:21:52.041Z,1.90
2022-08-01T22:24:37.838Z,2.38
2022-08-01T22:28:06.550Z,2.90
2022-08-01T22:30:33.626Z,2.25
2022-08-01T22:33:20.294Z,1.80
2022-08-01T22:36:07.146Z,2.90
2022-08-01T22:38:52.418Z,2.28
2022-08-01T22:42:01.717Z,3.08
2022-08-01T22:45:03.314Z,3.15
2022-08-01T22:48:24.443Z,2.70
2022-08-01T22:51:26.014Z,3.92
2022-08-01T22:54:21.448Z,1.92
2022-08-01T22:57:14.715Z,3.03
2022-08-01T23:00:02.383Z,1.85
2022-08-01T23:02:53.836Z,2.15
2022-08-01T23:05:52.431Z,2.20
2022-08-01T23:08:40.254Z,2.75
2022-08-01T23:11:26.558Z,2.55
2022-08-01T23:14:12.537Z,3.63
2022-08-01T23:17:03.205Z,2.58
2022-08-01T23:20:09.167Z,2.50
2022-08-01T23:22:55.660Z,2.83
2022-08-01T23:25:40.908Z,2.05
2022-08-01T23:28:28.061Z,3.47
2022-08-01T23:31:13.994Z,2.03
2022-08-01T23:33:59.466Z,2.15
2022-08-01T23:36:44.993Z,2.72
2022-08-01T23:39:30.474Z,2.08
2022-08-01T23:42:15.953Z,2.60
2022-08-01T23:45:01.541Z,1.70
2022-08-01T23:47:47.226Z,2.05
2022-08-01T23:50:32.358Z,2.63
2022-08-01T23:53:17.764Z,2.63
2022-08-01T23:56:06.490Z,2.45
2022-08-01T23:58:51.935Z,3.35
